createdAt,value
2018-04-18T00:00:34.284Z,75.84
2018-04-18T00:03:01.791Z,75.92
2018-04-18T00:05:29.311Z,75.86
2018-04-18T00:07:56.873Z,75.88
2018-04-18T00:10:24.383Z,76.05
2018-04-18T00:12:51.890Z,76.03
2018-04-18T00:15:19.392Z,76.10
2018-04-18T00:17:46.908Z,76.14
2018-04-18T00:20:14.419Z,76.27
2018-04-18T00:22:41.919Z,76.46
2018-04-18T00:25:09.428Z,76.32
2018-04-18T00:27:36.936Z,76.54
2018-04-18T00:30:05.431Z,76.50
2018-04-18T00:32:32.943Z,76.35
2018-04-18T00:37:33.207Z,76.38
2018-04-18T00:40:00.713Z,76.42
2018-04-18T00:42:28.259Z,76.10
2018-04-18T00:44:55.772Z,76.08
2018-04-18T00:47:23.283Z,76.11
2018-04-18T00:49:50.823Z,76.07
2018-04-18T00:52:18.333Z,76.06
2018-04-18T00:54:45.866Z,76.08
2018-04-18T00:57:13.391Z,75.79
2018-04-18T00:59:40.947Z,76.12
2018-04-18T01:02:08.455Z,76.47
2018-04-18T01:04:35.994Z,76.45
2018-04-18T01:07:03.499Z,76.78
2018-04-18T01:09:31.023Z,76.60
2018-04-18T01:11:58.543Z,76.57
2018-04-18T01:14:26.055Z,76.18
2018-04-18T01:16:53.567Z,75.97
2018-04-18T01:19:21.082Z,75.82
2018-04-18T01:21:48.591Z,75.85
2018-04-18T01:24:16.096Z,75.94
2018-04-18T01:26:43.603Z,76.08
2018-04-18T01:29:11.108Z,75.91
2018-04-18T01:31:38.611Z,76.31
2018-04-18T01:34:06.120Z,76.36
2018-04-18T01:36:33.627Z,76.06
2018-04-18T01:39:01.127Z,76.39
2018-04-18T01:41:28.672Z,75.89
2018-04-18T01:43:56.180Z,76.35
2018-04-18T01:46:23.692Z,76.58
2018-04-18T01:48:51.234Z,76.16
2018-04-18T01:51:18.735Z,75.79
2018-04-18T01:53:46.280Z,75.66
2018-04-18T01:56:13.778Z,76.06
2018-04-18T01:58:41.327Z,76.42
2018-04-18T02:01:08.882Z,76.47
2018-04-18T02:03:36.396Z,76.28
2018-04-18T02:06:03.946Z,76.50
2018-04-18T02:08:31.458Z,76.28
2018-04-18T02:10:58.964Z,76.09
2018-04-18T02:13:26.472Z,75.89
2018-04-18T02:15:53.987Z,75.75
2018-04-18T02:18:21.534Z,76.14
2018-04-18T02:20:49.075Z,75.99
2018-04-18T02:23:16.628Z,75.94
2018-04-18T02:25:44.134Z,75.99
2018-04-18T02:28:11.635Z,76.10
2018-04-18T02:30:39.254Z,76.63
2018-04-18T02:33:06.765Z,76.29
2018-04-18T02:35:34.324Z,76.69
2018-04-18T02:38:01.848Z,77.40
2018-04-18T02:40:29.363Z,77.34
2018-04-18T02:42:56.903Z,77.44
2018-04-18T02:45:24.413Z,78.57
2018-04-18T02:47:51.967Z,79.97
2018-04-18T02:50:19.479Z,80.26
2018-04-18T02:52:46.987Z,79.84
2018-04-18T02:55:14.509Z,79.46
2018-04-18T02:57:42.038Z,80.04
2018-04-18T03:00:09.598Z,80.87
2018-04-18T03:02:37.112Z,80.89
2018-04-18T03:05:04.629Z,80.73
2018-04-18T03:07:32.167Z,80.27
2018-04-18T03:09:59.678Z,79.55
2018-04-18T03:12:27.192Z,79.64
2018-04-18T03:14:54.736Z,80.58
2018-04-18T03:17:22.267Z,80.42
2018-04-18T03:19:49.799Z,79.58
2018-04-18T03:22:17.319Z,79.94
2018-04-18T03:24:44.819Z,80.00
2018-04-18T03:27:12.350Z,79.47
2018-04-18T03:29:39.918Z,79.27
2018-04-18T03:32:07.432Z,79.68
2018-04-18T03:34:34.935Z,79.36
2018-04-18T03:37:02.489Z,78.81
2018-04-18T03:39:30.106Z,78.67
2018-04-18T03:41:57.617Z,78.88
2018-04-18T03:44:25.129Z,78.56
2018-04-18T03:46:52.663Z,78.73
2018-04-18T03:49:20.172Z,78.69
2018-04-18T03:51:47.725Z,78.43
2018-04-18T03:54:15.308Z,78.52
2018-04-18T03:56:42.818Z,78.43
2018-04-18T03:59:10.360Z,79.81
2018-04-18T04:01:37.905Z,79.09
2018-04-18T04:04:05.414Z,78.82
2018-04-18T04:06:32.923Z,78.23
2018-04-18T04:09:00.424Z,77.90
2018-04-18T04:11:27.924Z,78.64
2018-04-18T04:13:55.472Z,78.94
2018-04-18T04:16:34.790Z,78.39
2018-04-18T04:19:14.199Z,78.00
2018-04-18T04:21:53.595Z,78.80
2018-04-18T04:24:33.767Z,77.87
2018-04-18T04:27:01.316Z,76.43
2018-04-18T04:29:28.827Z,78.07
2018-04-18T04:31:56.360Z,77.35
2018-04-18T04:34:23.879Z,75.78
2018-04-18T04:36:51.402Z,74.57
2018-04-18T04:39:18.995Z,72.92
2018-04-18T04:41:46.549Z,71.56
2018-04-18T04:44:14.067Z,71.19
2018-04-18T04:46:41.629Z,71.02
2018-04-18T04:49:09.176Z,69.43
2018-04-18T04:51:36.732Z,68.93
2018-04-18T04:54:04.248Z,67.92
2018-04-18T04:56:31.752Z,67.26
2018-04-18T04:58:59.251Z,66.08
2018-04-18T05:01:26.754Z,67.14
2018-04-18T05:03:54.262Z,65.74
2018-04-18T05:06:21.780Z,64.78
2018-04-18T05:08:49.328Z,64.62
2018-04-18T05:11:16.846Z,63.10
2018-04-18T05:13:44.411Z,63.13
2018-04-18T05:16:11.929Z,64.69
2018-04-18T05:18:39.479Z,63.75
2018-04-18T05:21:07.041Z,63.60
2018-04-18T05:23:34.556Z,63.24
2018-04-18T05:26:02.064Z,62.61
2018-04-18T05:28:29.579Z,60.79
2018-04-18T05:30:57.203Z,58.44
2018-04-18T05:33:24.679Z,58.99
2018-04-18T05:35:52.182Z,62.12
2018-04-18T05:38:19.688Z,64.39
2018-04-18T05:40:47.186Z,65.63
2018-04-18T05:43:14.741Z,67.08
2018-04-18T05:45:42.553Z,67.57
2018-04-18T05:50:36.907Z,64.53
2018-04-18T05:53:04.411Z,63.47
2018-04-18T05:55:31.958Z,62.58
2018-04-18T05:57:59.463Z,58.08
2018-04-18T06:00:27.012Z,55.70
2018-04-18T06:02:54.648Z,55.86
2018-04-18T06:05:22.150Z,57.97
2018-04-18T06:07:49.677Z,58.00
2018-04-18T06:10:17.183Z,57.57
2018-04-18T06:12:44.718Z,58.40
2018-04-18T06:15:12.242Z,60.92
2018-04-18T06:17:39.817Z,60.47
2018-04-18T06:20:07.356Z,59.08
2018-04-18T06:22:34.868Z,58.51
2018-04-18T06:25:02.378Z,57.39
2018-04-18T06:27:29.888Z,58.58
2018-04-18T06:29:57.408Z,59.31
2018-04-18T06:32:24.919Z,58.50
2018-04-18T06:34:52.428Z,57.78
2018-04-18T06:37:19.931Z,57.53
2018-04-18T06:39:47.447Z,55.10
2018-04-18T06:42:15.009Z,55.92
2018-04-18T06:44:42.535Z,56.16
2018-04-18T06:47:10.036Z,54.99
2018-04-18T06:49:37.546Z,55.29
2018-04-18T06:52:05.087Z,54.59
2018-04-18T06:54:32.598Z,53.61
2018-04-18T06:57:00.147Z,51.55
2018-04-18T06:59:27.647Z,52.74
2018-04-18T07:01:55.159Z,53.98
2018-04-18T07:04:22.661Z,53.36
2018-04-18T07:06:50.165Z,54.72
2018-04-18T07:09:17.715Z,53.83
2018-04-18T07:11:45.224Z,53.11
2018-04-18T07:14:12.783Z,54.29
2018-04-18T07:16:40.296Z,52.72
2018-04-18T07:19:07.810Z,52.48
2018-04-18T07:21:35.307Z,49.07
2018-04-18T07:24:02.816Z,47.50
2018-04-18T07:26:30.319Z,47.58
2018-04-18T07:28:57.831Z,47.07
2018-04-18T07:31:25.338Z,45.89
2018-04-18T07:33:52.837Z,44.57
2018-04-18T07:36:20.331Z,42.43
2018-04-18T07:38:47.850Z,42.08
2018-04-18T07:41:15.347Z,44.62
2018-04-18T07:43:42.850Z,45.47
2018-04-18T07:46:10.359Z,44.16
2018-04-18T07:48:37.882Z,40.21
2018-04-18T07:51:05.398Z,41.52
2018-04-18T07:53:32.902Z,45.15
2018-04-18T07:56:00.555Z,47.64
2018-04-18T07:58:28.089Z,48.20
2018-04-18T08:00:55.591Z,48.85
2018-04-18T08:03:23.136Z,51.82
2018-04-18T08:05:50.678Z,51.97
2018-04-18T08:08:18.188Z,50.89
2018-04-18T08:10:45.707Z,49.50
2018-04-18T08:13:13.207Z,49.01
2018-04-18T08:15:40.715Z,47.56
2018-04-18T08:18:08.215Z,43.78
2018-04-18T08:20:35.742Z,42.81
2018-04-18T08:23:03.251Z,43.97
2018-04-18T08:25:30.757Z,41.73
2018-04-18T08:27:58.265Z,43.61
2018-04-18T08:30:25.816Z,43.66
2018-04-18T08:32:53.333Z,45.29
2018-04-18T08:35:20.863Z,44.75
2018-04-18T08:37:48.372Z,43.98
2018-04-18T08:40:15.908Z,44.53
2018-04-18T08:42:43.454Z,45.05
2018-04-18T08:45:11.002Z,44.63
2018-04-18T08:47:38.503Z,44.66
2018-04-18T08:50:06.012Z,43.96
2018-04-18T08:52:33.528Z,42.32
2018-04-18T08:55:01.036Z,43.45
2018-04-18T08:57:28.540Z,41.80
2018-04-18T08:59:56.052Z,41.98
2018-04-18T09:02:23.563Z,40.43
2018-04-18T09:04:51.077Z,38.93
2018-04-18T09:07:18.581Z,36.69
2018-04-18T09:09:46.144Z,38.02
2018-04-18T09:12:13.672Z,35.98
2018-04-18T09:14:41.184Z,35.04
2018-04-18T09:17:08.707Z,34.34
2018-04-18T09:19:36.259Z,34.44
2018-04-18T09:22:03.776Z,34.50
2018-04-18T09:24:31.302Z,32.83
2018-04-18T09:26:58.863Z,33.82
2018-04-18T09:29:26.376Z,33.69
2018-04-18T09:31:53.866Z,33.62
2018-04-18T09:34:21.379Z,36.14
2018-04-18T09:36:48.949Z,35.04
2018-04-18T09:39:16.468Z,37.43
2018-04-18T09:41:43.976Z,37.41
2018-04-18T09:44:11.482Z,35.44
2018-04-18T09:46:38.988Z,33.96
2018-04-18T09:49:06.521Z,35.14
2018-04-18T09:51:34.048Z,35.21
2018-04-18T09:54:01.562Z,34.75
2018-04-18T09:56:29.108Z,35.73
2018-04-18T09:58:56.631Z,34.58
2018-04-18T10:01:29.665Z,33.79
2018-04-18T10:04:12.994Z,33.75
2018-04-18T10:06:40.498Z,35.39
2018-04-18T10:09:07.998Z,35.61
2018-04-18T10:11:35.539Z,37.69
2018-04-18T10:14:03.047Z,37.88
2018-04-18T10:16:30.543Z,36.56
2018-04-18T10:18:58.057Z,36.68
2018-04-18T10:21:25.563Z,36.06
2018-04-18T10:23:53.116Z,35.14
2018-04-18T10:26:20.623Z,33.71
2018-04-18T10:28:48.966Z,31.76
2018-04-18T10:31:16.506Z,32.90
2018-04-18T10:33:44.036Z,32.80
2018-04-18T10:36:11.599Z,32.88
2018-04-18T10:38:39.149Z,32.16
2018-04-18T10:41:06.692Z,31.83
2018-04-18T10:43:34.192Z,32.97
2018-04-18T10:46:01.749Z,31.53
2018-04-18T10:48:29.263Z,31.76
2018-04-18T10:50:56.840Z,32.14
2018-04-18T10:53:24.339Z,31.11
2018-04-18T10:55:51.882Z,34.50
2018-04-18T10:58:19.380Z,33.18
2018-04-18T11:00:46.939Z,33.28
2018-04-18T11:03:14.484Z,32.30
2018-04-18T11:05:42.045Z,31.46
2018-04-18T11:08:09.560Z,32.70
2018-04-18T11:10:37.103Z,30.36
2018-04-18T11:13:04.604Z,29.87
2018-04-18T11:15:32.460Z,29.52
2018-04-18T11:17:59.959Z,28.55
2018-04-18T11:20:27.466Z,28.25
2018-04-18T11:22:54.982Z,27.29
2018-04-18T11:25:22.499Z,28.69
2018-04-18T11:27:50.063Z,27.26
2018-04-18T11:30:17.628Z,26.47
2018-04-18T11:32:45.203Z,26.92
2018-04-18T11:35:12.721Z,28.09
2018-04-18T11:37:40.284Z,30.05
2018-04-18T11:40:07.784Z,31.93
2018-04-18T11:42:35.291Z,31.04
2018-04-18T11:45:02.799Z,29.58
2018-04-18T11:47:30.342Z,30.19
2018-04-18T11:49:57.899Z,31.32
2018-04-18T11:52:25.413Z,29.86
2018-04-18T11:54:52.968Z,29.84
2018-04-18T11:57:20.478Z,29.58
2018-04-18T11:59:48.004Z,30.52
2018-04-18T12:02:15.543Z,29.70
2018-04-18T12:04:43.029Z,29.19
2018-04-18T12:07:10.540Z,29.17
2018-04-18T12:09:38.103Z,27.84
2018-04-18T12:12:05.635Z,28.64
2018-04-18T12:14:33.141Z,29.24
2018-04-18T12:17:00.664Z,30.16
2018-04-18T12:19:28.172Z,30.86
2018-04-18T12:21:55.675Z,32.00
2018-04-18T12:24:23.262Z,31.45
2018-04-18T12:26:50.864Z,31.72
2018-04-18T12:29:18.367Z,30.62
2018-04-18T12:31:45.902Z,30.32
2018-04-18T12:34:13.411Z,30.44
2018-04-18T12:36:40.921Z,31.49
2018-04-18T12:39:08.433Z,32.59
2018-04-18T12:42:18.999Z,33.19
2018-04-18T12:44:46.512Z,33.31
2018-04-18T12:47:14.042Z,34.15
2018-04-18T12:49:41.581Z,35.19
2018-04-18T12:52:09.100Z,34.89
2018-04-18T12:54:36.615Z,34.22
2018-04-18T12:57:04.123Z,34.39
2018-04-18T12:59:31.659Z,33.55
2018-04-18T13:01:59.195Z,32.80
2018-04-18T13:04:26.769Z,33.14
2018-04-18T13:06:54.272Z,33.16
2018-04-18T13:09:21.779Z,34.93
2018-04-18T13:11:49.295Z,37.22
2018-04-18T13:14:16.806Z,36.09
2018-04-18T13:16:44.348Z,35.79
2018-04-18T13:19:11.875Z,35.83
2018-04-18T13:21:39.432Z,35.78
2018-04-18T13:24:06.935Z,35.57
2018-04-18T13:26:34.466Z,36.87
2018-04-18T13:29:02.013Z,37.02
2018-04-18T13:31:29.521Z,37.13
2018-04-18T13:33:57.028Z,37.86
2018-04-18T13:36:24.582Z,37.68
2018-04-18T13:38:52.127Z,37.32
2018-04-18T13:41:19.676Z,37.33
2018-04-18T13:43:47.198Z,37.11
2018-04-18T13:46:14.703Z,37.26
2018-04-18T13:48:42.246Z,37.58
2018-04-18T13:51:09.755Z,37.48
2018-04-18T13:53:37.304Z,37.82
2018-04-18T13:56:04.838Z,38.21
2018-04-18T13:58:32.368Z,37.82
2018-04-18T14:00:59.912Z,37.27
2018-04-18T14:03:27.412Z,37.30
2018-04-18T14:05:54.920Z,37.88
2018-04-18T14:08:22.439Z,37.53
2018-04-18T14:10:49.957Z,38.19
2018-04-18T14:13:17.500Z,38.21
2018-04-18T14:15:46.397Z,39.66
2018-04-18T14:18:13.902Z,38.84
2018-04-18T14:20:41.409Z,38.87
2018-04-18T14:23:08.964Z,39.07
2018-04-18T14:25:36.513Z,39.97
2018-04-18T14:28:04.088Z,39.81
2018-04-18T14:30:31.659Z,40.69
2018-04-18T14:32:59.177Z,40.85
2018-04-18T14:35:26.688Z,41.04
2018-04-18T14:37:54.324Z,41.20
2018-04-18T14:40:21.885Z,41.31
2018-04-18T14:42:49.393Z,41.99
2018-04-18T14:45:16.910Z,42.11
2018-04-18T14:47:44.480Z,42.61
2018-04-18T14:50:12.001Z,42.74
2018-04-18T14:52:39.506Z,43.35
2018-04-18T14:55:07.057Z,44.03
2018-04-18T14:57:34.554Z,43.88
2018-04-18T15:00:02.077Z,43.90
2018-04-18T15:02:29.612Z,44.38
2018-04-18T15:04:57.137Z,44.86
2018-04-18T15:07:24.641Z,44.59
2018-04-18T15:09:52.303Z,45.37
2018-04-18T15:12:19.803Z,45.80
2018-04-18T15:14:47.316Z,45.72
2018-04-18T15:17:14.875Z,46.49
2018-04-18T15:19:42.444Z,46.66
2018-04-18T15:22:09.951Z,46.98
2018-04-18T15:24:37.511Z,46.84
2018-04-18T15:27:05.028Z,46.48
2018-04-18T15:29:32.575Z,47.32
2018-04-18T15:32:00.136Z,48.13
2018-04-18T15:34:27.644Z,48.25
2018-04-18T15:36:55.255Z,48.24
2018-04-18T15:39:22.763Z,48.25
2018-04-18T15:41:50.329Z,49.00
2018-04-18T15:44:17.834Z,48.87
2018-04-18T15:46:45.351Z,49.48
2018-04-18T15:49:12.851Z,48.89
2018-04-18T15:51:40.367Z,49.34
2018-04-18T15:54:07.890Z,50.04
2018-04-18T15:56:35.396Z,50.46
2018-04-18T15:59:02.909Z,50.52
2018-04-18T16:01:30.416Z,51.14
2018-04-18T16:03:57.923Z,51.62
2018-04-18T16:06:25.436Z,51.92
2018-04-18T16:08:52.939Z,52.18
2018-04-18T16:11:20.444Z,51.69
2018-04-18T16:13:47.949Z,52.02
2018-04-18T16:16:15.495Z,52.25
2018-04-18T16:18:43.009Z,52.60
2018-04-18T16:21:10.510Z,52.72
2018-04-18T16:23:38.017Z,52.74
2018-04-18T16:26:05.536Z,52.81
2018-04-18T16:28:33.045Z,53.16
2018-04-18T16:31:00.583Z,52.86
2018-04-18T16:33:28.088Z,53.21
2018-04-18T16:35:55.665Z,53.83
2018-04-18T16:38:23.175Z,53.61
2018-04-18T16:40:51.437Z,53.38
2018-04-18T16:43:18.949Z,53.45
2018-04-18T16:45:46.487Z,53.48
2018-04-18T16:48:14.017Z,53.58
2018-04-18T16:50:41.564Z,53.90
2018-04-18T16:53:09.071Z,53.80
2018-04-18T16:55:36.582Z,53.95
2018-04-18T16:58:04.099Z,54.64
2018-04-18T17:00:31.659Z,55.35
2018-04-18T17:02:59.199Z,55.22
2018-04-18T17:05:26.698Z,54.76
2018-04-18T17:07:54.248Z,55.29
2018-04-18T17:10:21.814Z,55.55
2018-04-18T17:12:50.187Z,55.42
2018-04-18T17:15:17.695Z,55.22
2018-04-18T17:17:45.201Z,54.93
2018-04-18T17:20:12.718Z,54.96
2018-04-18T17:22:40.251Z,55.29
2018-04-18T17:25:07.788Z,55.14
2018-04-18T17:27:35.342Z,55.24
2018-04-18T17:30:04.256Z,54.99
2018-04-18T17:32:31.759Z,55.27
2018-04-18T17:34:59.266Z,55.25
2018-04-18T17:37:26.772Z,55.37
2018-04-18T17:39:54.303Z,55.56
2018-04-18T17:42:21.807Z,55.68
2018-04-18T17:44:49.350Z,55.57
2018-04-18T17:47:16.906Z,56.04
2018-04-18T17:49:44.467Z,56.14
2018-04-18T17:52:11.998Z,56.65
2018-04-18T17:54:39.552Z,56.62
2018-04-18T17:57:07.052Z,56.28
2018-04-18T17:59:34.603Z,56.03
2018-04-18T18:02:02.157Z,56.56
2018-04-18T18:04:29.674Z,56.28
2018-04-18T18:06:57.199Z,56.73
2018-04-18T18:09:25.616Z,56.50
2018-04-18T18:11:53.240Z,56.60
2018-04-18T18:14:20.765Z,57.01
2018-04-18T18:16:48.267Z,57.24
2018-04-18T18:19:15.775Z,57.48
2018-04-18T18:21:43.334Z,57.49
2018-04-18T18:24:10.846Z,58.11
2018-04-18T18:26:38.361Z,58.00
2018-04-18T18:29:05.881Z,57.91
2018-04-18T18:31:33.448Z,57.37
2018-04-18T18:34:00.927Z,57.21
2018-04-18T18:36:28.476Z,57.21
2018-04-18T18:38:56.904Z,57.33
2018-04-18T18:41:24.450Z,57.43
2018-04-18T18:43:51.962Z,57.50
2018-04-18T18:46:19.471Z,57.59
2018-04-18T18:48:46.991Z,58.75
2018-04-18T18:51:14.544Z,60.61
2018-04-18T18:53:42.074Z,58.91
2018-04-18T18:56:09.642Z,58.46
2018-04-18T18:58:37.164Z,58.54
2018-04-18T19:01:04.763Z,58.47
2018-04-18T19:03:32.276Z,58.63
2018-04-18T19:05:59.881Z,58.76
2018-04-18T19:08:27.445Z,59.07
2018-04-18T19:10:55.020Z,59.02
2018-04-18T19:13:22.532Z,59.35
2018-04-18T19:15:50.043Z,59.60
2018-04-18T19:18:17.551Z,59.67
2018-04-18T19:20:45.060Z,60.44
2018-04-18T19:23:12.615Z,60.81
2018-04-18T19:25:40.189Z,61.26
2018-04-18T19:28:07.713Z,60.33
2018-04-18T19:30:35.243Z,60.71
2018-04-18T19:33:02.764Z,60.43
2018-04-18T19:35:30.279Z,60.56
2018-04-18T19:37:57.790Z,60.26
2018-04-18T19:40:25.300Z,60.24
2018-04-18T19:42:52.823Z,60.28
2018-04-18T19:45:20.432Z,60.19
2018-04-18T19:47:47.983Z,60.30
2018-04-18T19:50:15.500Z,60.06
2018-04-18T19:52:43.011Z,60.40
2018-04-18T19:55:10.587Z,60.27
2018-04-18T19:57:38.097Z,60.54
2018-04-18T20:00:05.651Z,60.69
2018-04-18T20:02:33.157Z,60.64
2018-04-18T20:05:00.700Z,61.27
2018-04-18T20:07:28.199Z,60.93
2018-04-18T20:09:55.759Z,61.12
2018-04-18T20:12:23.285Z,61.66
2018-04-18T20:14:50.791Z,61.65
2018-04-18T20:17:18.295Z,62.55
2018-04-18T20:19:45.804Z,62.27
2018-04-18T20:22:13.348Z,62.27
2018-04-18T20:24:40.860Z,62.03
2018-04-18T20:27:08.392Z,62.43
2018-04-18T20:29:35.963Z,62.62
2018-04-18T20:32:03.556Z,62.41
2018-04-18T20:34:31.096Z,62.20
2018-04-18T20:36:58.626Z,63.20
2018-04-18T20:39:26.191Z,63.10
2018-04-18T20:41:55.614Z,63.41
2018-04-18T20:44:23.138Z,63.15
2018-04-18T20:46:50.700Z,63.61
2018-04-18T20:49:18.221Z,63.74
2018-04-18T20:51:45.771Z,63.73
2018-04-18T20:54:13.332Z,63.80
2018-04-18T20:56:40.925Z,63.93
2018-04-18T20:59:08.455Z,64.29
2018-04-18T21:01:36.034Z,64.26
2018-04-18T21:04:03.566Z,64.22
2018-04-18T21:06:31.112Z,64.32
2018-04-18T21:08:58.690Z,64.31
2018-04-18T21:11:26.218Z,64.56
2018-04-18T21:13:53.749Z,64.90
2018-04-18T21:16:21.325Z,65.25
2018-04-18T21:18:48.863Z,65.45
2018-04-18T21:21:16.395Z,65.62
2018-04-18T21:23:43.936Z,65.39
2018-04-18T21:26:11.507Z,65.20
2018-04-18T21:28:39.083Z,65.21
2018-04-18T21:31:06.659Z,65.32
2018-04-18T21:33:34.186Z,65.81
2018-04-18T21:36:01.750Z,65.87
2018-04-18T21:38:29.325Z,66.02
2018-04-18T21:40:56.969Z,66.60
2018-04-18T21:43:24.495Z,66.63
2018-04-18T21:45:52.032Z,66.64
2018-04-18T21:48:19.553Z,66.69
2018-04-18T21:53:13.911Z,66.59
2018-04-18T21:55:41.457Z,66.62
2018-04-18T21:58:08.986Z,66.74
2018-04-18T22:00:36.554Z,66.86
2018-04-18T22:03:04.082Z,67.30
2018-04-18T22:05:31.651Z,67.30
2018-04-18T22:07:59.181Z,67.43
2018-04-18T22:10:26.765Z,67.19
2018-04-18T22:12:54.292Z,67.51
2018-04-18T22:15:21.828Z,68.15
2018-04-18T22:17:49.362Z,68.15
2018-04-18T22:20:16.895Z,68.20
2018-04-18T22:22:44.463Z,68.56
2018-04-18T22:25:12.000Z,68.74
2018-04-18T22:27:39.530Z,68.61
2018-04-18T22:30:07.097Z,68.62
2018-04-18T22:32:34.635Z,68.68
2018-04-18T22:35:02.170Z,68.61
2018-04-18T22:37:29.701Z,68.77
2018-04-18T22:39:57.270Z,68.68
2018-04-18T22:42:24.794Z,68.59
2018-04-18T22:44:52.357Z,68.23
2018-04-18T22:47:19.889Z,68.06
2018-04-18T22:49:47.430Z,68.14
2018-04-18T22:52:15.005Z,67.98
2018-04-18T22:54:42.535Z,68.08
2018-04-18T22:57:10.103Z,68.04
2018-04-18T22:59:37.640Z,68.29
2018-04-18T23:02:05.168Z,68.22
2018-04-18T23:04:32.703Z,68.11
2018-04-18T23:07:00.228Z,68.08
2018-04-18T23:09:27.758Z,68.30
2018-04-18T23:11:55.284Z,68.38
2018-04-18T23:14:22.814Z,68.36
2018-04-18T23:16:50.346Z,68.28
2018-04-18T23:19:17.914Z,68.23
2018-04-18T23:21:45.441Z,68.13
2018-04-18T23:24:13.022Z,68.29
2018-04-18T23:26:40.558Z,68.23
2018-04-18T23:29:08.123Z,68.41
2018-04-18T23:31:35.654Z,68.34
2018-04-18T23:34:03.178Z,68.33
2018-04-18T23:36:30.702Z,68.23
2018-04-18T23:38:58.273Z,68.44
2018-04-18T23:41:25.798Z,68.22
2018-04-18T23:43:53.322Z,68.11
2018-04-18T23:46:20.849Z,68.07
2018-04-18T23:48:48.416Z,68.31
2018-04-18T23:51:15.946Z,68.26
2018-04-18T23:53:43.489Z,68.65
2018-04-18T23:56:11.015Z,68.86
2018-04-18T23:58:38.553Z,68.80
